Time;durP1;ratioP1;P1;durP2;ratioP2;P2;SDS_P1;SDS_P2;PMS_P1;PMS_P2;Temp;Humidity;BMP_temperature;BMP_pressure;BME280_temperature;BME280_humidity;BME280_pressure;Samples;Min_cycle;Max_cycle;Signal;HPM_P1;HPM_P2
2022/06/01 00:01:32;;;;;;;;;2.33;2.33;;;;;15.83;47.50;101318.75;5045155;28;45260;-68
2022/06/01 00:03:57;;;;;;;;;3.00;3.00;;;;;15.80;47.79;101307.25;5038486;28;45541;-68
2022/06/01 00:06:23;;;;;;;;;4.00;4.00;;;;;15.77;47.99;101310.34;5045784;28;45406;-69
2022/06/01 00:08:48;;;;;;;;;2.67;2.00;;;;;15.68;47.79;101319.56;5040402;28;47120;-69
2022/06/01 00:11:15;;;;;;;;;3.00;3.00;;;;;15.66;47.95;101311.50;5045019;28;45416;-68
2022/06/01 00:13:41;;;;;;;;;3.00;3.00;;;;;15.66;48.11;101311.50;5044548;28;45393;-66
2022/06/01 00:16:07;;;;;;;;;3.67;3.67;;;;;15.57;48.25;101318.84;5045686;28;45258;-68
2022/06/01 00:18:33;;;;;;;;;3.00;3.00;;;;;15.44;49.41;101301.13;5043956;28;45662;-66
2022/06/01 00:20:58;;;;;;;;;2.00;2.00;;;;;15.49;48.38;101317.91;5045027;28;45394;-66
2022/06/01 00:23:24;;;;;;;;;2.00;2.00;;;;;15.44;49.21;101318.41;5044592;28;45616;-66
2022/06/01 00:25:50;;;;;;;;;2.00;2.00;;;;;15.45;48.85;101324.75;5045672;28;45504;-67
2022/06/01 00:28:16;;;;;;;;;2.67;2.33;;;;;15.44;48.56;101320.31;5042153;28;45774;-68
2022/06/01 00:30:41;;;;;;;;;3.00;2.67;;;;;15.40;49.72;101324.41;5043462;28;45414;-67
2022/06/01 00:33:07;;;;;;;;;2.00;2.00;;;;;15.38;49.86;101324.56;5044425;28;45507;-67
2022/06/01 00:35:32;;;;;;;;;3.00;3.00;;;;;15.35;49.07;101329.50;5045092;28;45808;-67
2022/06/01 00:37:58;;;;;;;;;2.67;1.67;;;;;15.30;49.71;101327.28;5054760;28;46821;-67
2022/06/01 00:40:26;;;;;;;;;2.33;2.33;;;;;15.29;49.44;101325.56;5043841;28;45310;-68
2022/06/01 00:42:57;;;;;;;;;5.00;4.00;;;;;15.26;49.94;101323.16;5041379;28;45571;-67
2022/06/01 00:45:25;;;;;;;;;4.33;4.33;;;;;15.20;49.65;101330.13;5045129;28;45469;-66
2022/06/01 00:47:51;;;;;;;;;5.00;4.00;;;;;15.20;49.86;101326.53;5043685;28;45417;-66
2022/06/01 00:50:42;;;;;;;;;3.00;2.67;;;;;15.22;49.50;101329.97;5043402;28;45231;-67
2022/06/01 00:53:16;;;;;;;;;4.00;3.00;;;;;15.19;49.99;101322.09;5042750;28;45465;-66
2022/06/01 00:55:48;;;;;;;;;3.00;3.00;;;;;15.18;49.81;101326.72;5044589;28;45572;-66
2022/06/01 00:58:19;;;;;;;;;1.33;1.33;;;;;15.16;50.22;101325.16;5043585;28;46192;-66
2022/06/01 01:00:45;;;;;;;;;6.33;4.67;;;;;15.10;50.40;101325.81;5044285;28;45504;-66
2022/06/01 01:03:13;;;;;;;;;3.00;3.00;;;;;15.03;50.48;101327.50;5043655;28;45446;-67
2022/06/01 01:05:43;;;;;;;;;4.00;3.33;;;;;15.00;50.78;101323.19;5044672;28;45354;-66
2022/06/01 01:08:09;;;;;;;;;3.67;3.67;;;;;15.02;50.50;101326.63;5043551;28;45778;-67
2022/06/01 01:10:35;;;;;;;;;3.33;3.33;;;;;15.02;50.98;101323.03;5044084;28;45625;-67
2022/06/01 01:13:05;;;;;;;;;2.00;2.00;;;;;15.02;50.88;101317.56;5043703;28;45387;-67
2022/06/01 01:15:36;;;;;;;;;4.00;4.00;;;;;14.98;50.65;101325.22;5041387;28;45413;-67
2022/06/01 01:18:08;;;;;;;;;3.00;3.00;;;;;14.96;50.99;101319.09;5036785;28;46552;-67
2022/06/01 01:20:42;;;;;;;;;4.33;4.33;;;;;14.94;51.26;101326.59;5043472;28;45555;-67
2022/06/01 01:23:37;;;;;;;;;5.00;5.00;;;;;14.89;51.22;101323.50;5042802;28;45413;-67
2022/06/01 01:26:05;;;;;;;;;6.00;6.00;;;;;14.92;51.47;101319.56;5059768;28;45519;-66
2022/06/01 01:28:30;;;;;;;;;5.00;5.00;;;;;14.92;51.52;101320.41;5041125;28;46139;-67
2022/06/01 01:31:00;;;;;;;;;6.00;6.00;;;;;14.94;51.86;101314.78;5043928;28;45327;-67
2022/06/01 01:33:28;;;;;;;;;3.67;3.33;;;;;14.90;51.93;101307.94;5043330;28;45328;-67
2022/06/01 01:36:04;;;;;;;;;6.00;4.67;;;;;14.83;51.76;101302.22;5043952;28;45440;-67
2022/06/01 01:38:35;;;;;;;;;3.67;2.67;;;;;14.87;51.68;101313.72;5037815;28;47221;-67
2022/06/01 01:41:12;;;;;;;;;5.33;3.00;;;;;14.83;51.77;101310.44;5042126;28;45333;-67
2022/06/01 01:43:44;;;;;;;;;6.00;6.00;;;;;14.77;52.33;101317.41;5055878;28;45399;-67
2022/06/01 01:46:09;;;;;;;;;5.33;5.00;;;;;14.76;52.36;101321.16;5043991;28;45456;-66
2022/06/01 01:48:36;;;;;;;;;4.00;4.00;;;;;14.72;52.72;101328.00;5042696;28;46536;-67
2022/06/01 01:51:02;;;;;;;;;4.00;4.00;;;;;14.72;52.56;101329.88;5043326;28;45319;-67
2022/06/01 01:53:29;;;;;;;;;6.00;4.00;;;;;14.70;52.78;101329.16;5042087;28;45469;-67
2022/06/01 01:56:03;;;;;;;;;6.00;6.00;;;;;14.69;52.76;101321.97;5043703;28;45536;-67
2022/06/01 01:59:11;;;;;;;;;5.00;5.00;;;;;14.67;53.03;101324.03;5042089;28;46465;-67
2022/06/01 02:01:49;;;;;;;;;5.00;3.33;;;;;14.64;52.94;101318.88;5043568;28;45351;-67
2022/06/01 02:07:22;;;;;;;;;8.00;5.67;;;;;14.53;53.82;101322.75;5038812;28;45366;-67
2022/06/01 02:12:43;;;;;;;;;5.33;4.67;;;;;14.32;54.01;101300.31;5042450;28;45337;-67
2022/06/01 02:15:17;;;;;;;;;4.33;4.33;;;;;14.33;54.19;101304.78;5042868;28;45420;-67
2022/06/01 02:17:51;;;;;;;;;5.00;4.00;;;;;14.31;54.41;101306.81;5043147;28;45438;-67
2022/06/01 02:20:27;;;;;;;;;5.00;4.00;;;;;14.21;54.48;101295.13;5040867;28;46113;-68
2022/06/01 02:22:54;;;;;;;;;4.00;4.00;;;;;14.23;54.41;101298.56;5042681;28;45465;-67
2022/06/01 02:25:19;;;;;;;;;6.33;5.00;;;;;14.21;54.37;101301.44;5043054;28;45357;-67
2022/06/01 02:27:48;;;;;;;;;5.33;4.33;;;;;14.13;54.74;101297.78;5042037;28;45434;-66
2022/06/01 02:30:30;;;;;;;;;6.00;6.00;;;;;14.13;54.69;101287.72;5042584;28;45509;-67
2022/06/01 02:32:57;;;;;;;;;3.00;3.00;;;;;14.04;54.73;101292.25;5057884;28;45513;-67
2022/06/01 02:35:26;;;;;;;;;9.67;6.00;;;;;13.98;55.82;101281.94;5042128;28;45488;-67
2022/06/01 02:37:57;;;;;;;;;7.33;6.67;;;;;13.86;56.25;101283.22;5042813;28;45513;-66
2022/06/01 02:40:24;;;;;;;;;6.00;6.00;;;;;13.96;56.19;101300.38;5042602;28;46180;-67
2022/06/01 02:42:51;;;;;;;;;7.00;5.67;;;;;13.95;55.78;101300.53;5041970;28;45224;-67
2022/06/01 02:45:20;;;;;;;;;10.00;5.00;;;;;13.95;55.99;101295.09;5038981;28;45757;-66
2022/06/01 02:47:47;;;;;;;;;6.33;6.33;;;;;13.95;56.02;101301.38;5042564;28;45331;-67
2022/06/01 02:50:22;;;;;;;;;9.67;8.00;;;;;13.92;55.69;101289.91;5041225;28;45631;-67
2022/06/01 02:52:48;;;;;;;;;6.00;6.00;;;;;13.94;55.27;101293.38;5038705;28;45444;-67
2022/06/01 02:55:15;;;;;;;;;5.00;5.00;;;;;13.87;56.04;101297.75;5042930;28;45309;-67
2022/06/01 02:57:41;;;;;;;;;6.67;6.67;;;;;13.85;55.75;101300.63;5041465;28;45428;-67
2022/06/01 03:00:28;;;;;;;;;7.67;7.00;;;;;13.83;55.87;101294.44;5042212;28;45349;-67
2022/06/01 03:02:57;;;;;;;;;6.00;6.00;;;;;13.76;56.07;101287.91;5041727;28;45724;-66
2022/06/01 03:05:25;;;;;;;;;7.33;7.33;;;;;13.81;56.39;101290.13;5042373;28;45378;-67
2022/06/01 03:07:51;;;;;;;;;6.00;6.00;;;;;13.76;56.49;101284.31;5039303;28;45661;-67
2022/06/01 03:10:17;;;;;;;;;12.33;11.00;;;;;13.81;56.46;101285.53;5040757;28;46686;-67
2022/06/01 03:12:43;;;;;;;;;9.33;7.67;;;;;13.76;56.12;101274.25;5041223;28;45404;-67
2022/06/01 03:15:12;;;;;;;;;13.67;8.00;;;;;13.76;56.90;101278.84;5042093;28;45431;-67
2022/06/01 03:17:38;;;;;;;;;9.67;9.67;;;;;13.79;56.61;101284.00;5042295;28;45345;-67
2022/06/01 03:20:09;;;;;;;;;10.00;9.00;;;;;13.76;56.77;101284.31;5040027;28;45493;-66
2022/06/01 03:22:36;;;;;;;;;7.67;7.67;;;;;13.74;57.21;101291.78;5041860;28;46072;-67
2022/06/01 03:25:03;;;;;;;;;10.67;8.67;;;;;13.69;57.72;101295.00;5040683;28;45424;-67
2022/06/01 03:27:29;;;;;;;;;7.00;7.00;;;;;13.68;57.44;101293.28;5040253;28;45441;-67
2022/06/01 03:29:54;;;;;;;;;7.67;7.33;;;;;13.65;57.44;101296.31;5033180;28;47909;-67
2022/06/01 03:32:19;;;;;;;;;13.33;10.33;;;;;13.71;56.99;101298.44;5040472;28;45212;-67
2022/06/01 03:34:45;;;;;;;;;16.00;10.33;;;;;13.69;56.81;101295.00;5037716;28;45290;-67
2022/06/01 03:37:10;;;;;;;;;14.00;11.00;;;;;13.66;57.13;101289.84;5042398;28;45378;-67
2022/06/01 03:39:36;;;;;;;;;18.33;10.33;;;;;13.63;57.22;101301.06;5057030;28;46660;-67
2022/06/01 03:42:01;;;;;;;;;11.33;10.67;;;;;13.60;56.66;101293.19;5041684;28;45357;-67
2022/06/01 03:47:10;;;;;;;;;14.33;8.00;;;;;13.58;57.35;101303.41;5041897;28;45303;-66
2022/06/01 03:49:37;;;;;;;;;11.67;11.00;;;;;13.54;57.44;101307.44;5033956;28;46579;-67
2022/06/01 03:52:03;;;;;;;;;11.67;11.00;;;;;13.48;57.75;101308.94;5057426;28;45419;-67
2022/06/01 03:54:30;;;;;;;;;12.33;9.67;;;;;13.48;57.42;101308.06;5041152;28;45452;-67
2022/06/01 03:56:55;;;;;;;;;12.33;11.00;;;;;13.47;58.04;101300.91;5042140;28;45483;-67
2022/06/01 03:59:20;;;;;;;;;11.67;9.00;;;;;13.46;57.88;101305.50;5040704;28;46036;-67
2022/06/01 04:01:46;;;;;;;;;5.33;5.33;;;;;13.52;57.22;101314.94;5040459;28;45370;-68
2022/06/01 04:04:11;;;;;;;;;10.33;9.00;;;;;13.55;57.28;101317.38;5040828;28;45260;-67
2022/06/01 04:06:37;;;;;;;;;11.33;9.67;;;;;13.59;57.05;101321.50;5031116;28;45824;-67
2022/06/01 04:09:02;;;;;;;;;12.33;12.33;;;;;13.62;56.88;101316.59;5039943;28;45516;-67
2022/06/01 04:11:28;;;;;;;;;9.67;9.67;;;;;13.68;56.90;101317.84;5041296;28;45436;-67
2022/06/01 04:13:53;;;;;;;;;8.00;8.00;;;;;13.72;57.37;101332.94;5040196;28;45370;-66
2022/06/01 04:16:19;;;;;;;;;15.33;11.67;;;;;13.71;56.83;101327.59;5043281;28;45300;-66
2022/06/01 04:18:48;;;;;;;;;17.00;15.00;;;;;13.74;57.36;101330.00;5044180;28;45535;-67
2022/06/01 04:21:16;;;;;;;;;13.67;12.00;;;;;13.78;57.29;101331.44;5044486;28;45743;-67
2022/06/01 04:23:42;;;;;;;;;13.00;13.00;;;;;13.76;57.48;101328.84;5044234;28;45366;-67
2022/06/01 04:26:07;;;;;;;;;16.75;14.50;;;;;13.80;57.29;101330.28;5044643;28;45680;-67
2022/06/01 04:28:33;;;;;;;;;13.33;11.00;;;;;13.80;57.22;101332.16;5043094;28;46348;-67
2022/06/01 04:30:59;;;;;;;;;14.00;10.33;;;;;13.87;56.94;101336.84;5044174;28;45474;-67
2022/06/01 04:33:26;;;;;;;;;12.00;11.67;;;;;13.87;57.19;101342.31;5037833;28;45411;-67
2022/06/01 04:35:52;;;;;;;;;18.75;18.50;;;;;13.87;57.65;101336.84;5044397;28;45354;-67
2022/06/01 04:38:18;;;;;;;;;12.33;10.00;;;;;13.94;56.96;101343.41;5043369;28;45512;-68
2022/06/01 04:40:49;;;;;;;;;17.00;14.00;;;;;13.94;57.04;101337.94;5059706;28;45383;-67
2022/06/01 04:43:17;;;;;;;;;18.00;15.75;;;;;14.02;57.45;101345.34;5043230;28;45239;-67
2022/06/01 04:45:43;;;;;;;;;17.67;12.67;;;;;13.96;57.65;101354.13;5044917;28;45323;-67
2022/06/01 04:48:08;;;;;;;;;14.00;13.00;;;;;14.03;57.45;101345.16;5043595;28;45714;-67
2022/06/01 04:50:34;;;;;;;;;15.33;14.00;;;;;14.04;57.37;101355.09;5042863;28;45387;-67
2022/06/01 04:53:00;;;;;;;;;15.00;10.67;;;;;14.12;57.26;101346.09;5043861;28;45397;-66
2022/06/01 04:55:26;;;;;;;;;12.00;10.67;;;;;14.13;57.26;101346.97;5044501;28;45343;-67
2022/06/01 04:57:51;;;;;;;;;12.67;10.67;;;;;14.31;56.76;101361.50;5043264;28;46066;-67
2022/06/01 05:00:17;;;;;;;;;27.00;21.00;;;;;14.59;56.32;101360.38;5043393;28;45375;-67
2022/06/01 05:02:42;;;;;;;;;13.00;13.00;;;;;14.60;56.15;101364.84;5058962;28;45371;-67
2022/06/01 05:05:08;;;;;;;;;13.00;12.33;;;;;14.46;56.40;101368.16;5059451;28;45377;-67
2022/06/01 05:07:34;;;;;;;;;11.00;10.00;;;;;14.43;56.46;101376.66;5043097;28;45463;-66
2022/06/01 05:09:59;;;;;;;;;20.75;16.75;;;;;14.44;56.71;101367.44;5043498;28;45300;-67
2022/06/01 05:12:25;;;;;;;;;14.75;13.75;;;;;14.53;56.58;101368.38;5042513;28;45289;-66
2022/06/01 05:14:50;;;;;;;;;13.33;11.67;;;;;14.66;55.69;101371.53;5043247;28;45409;-66
2022/06/01 05:17:16;;;;;;;;;14.67;11.33;;;;;14.75;55.32;101371.44;5041758;28;45492;-66
2022/06/01 05:19:41;;;;;;;;;16.67;13.00;;;;;14.79;55.13;101374.72;5058092;28;45490;-67
2022/06/01 05:22:06;;;;;;;;;12.00;11.00;;;;;14.71;55.59;101374.66;5058249;28;45522;-66
2022/06/01 05:24:32;;;;;;;;;11.67;9.67;;;;;14.76;55.52;101373.16;5043654;28;45472;-66
2022/06/01 05:26:57;;;;;;;;;18.75;14.00;;;;;14.84;56.01;101372.34;5042383;28;45417;-67
2022/06/01 05:29:23;;;;;;;;;14.67;13.67;;;;;14.89;54.88;101371.88;5042013;28;45504;-65
2022/06/01 05:31:48;;;;;;;;;12.00;12.00;;;;;14.96;55.50;101372.94;5042991;28;45324;-68
2022/06/01 05:34:14;;;;;;;;;11.33;9.67;;;;;14.98;54.76;101365.41;5038480;28;45505;-67
2022/06/01 05:36:39;;;;;;;;;16.67;13.33;;;;;15.08;54.52;101374.38;5042712;28;45375;-67
2022/06/01 05:39:04;;;;;;;;;12.33;11.33;;;;;15.05;54.78;101372.81;5041990;28;45419;-67
2022/06/01 05:41:30;;;;;;;;;14.67;13.33;;;;;15.38;53.90;101373.00;5042210;28;45275;-67
2022/06/01 05:43:55;;;;;;;;;8.00;8.00;;;;;15.52;53.37;101372.38;5040582;28;45513;-67
2022/06/01 05:46:22;;;;;;;;;9.33;8.00;;;;;15.63;52.95;101374.84;5039991;28;45590;-67
2022/06/01 05:48:48;;;;;;;;;14.67;9.67;;;;;15.79;52.66;101361.19;5032611;28;45389;-68
2022/06/01 05:51:13;;;;;;;;;9.67;9.67;;;;;15.93;52.26;101351.44;5041204;28;45467;-68
2022/06/01 05:53:39;;;;;;;;;10.33;9.67;;;;;15.92;52.00;101363.47;5035438;28;46364;-68
2022/06/01 05:56:04;;;;;;;;;13.67;13.00;;;;;15.90;52.73;101352.66;5041186;28;46091;-68
2022/06/01 05:58:30;;;;;;;;;9.33;9.33;;;;;16.08;51.97;101355.25;5041496;28;45350;-68
2022/06/01 06:01:00;;;;;;;;;13.33;9.67;;;;;16.62;50.77;101364.72;5041947;28;45243;-68
2022/06/01 06:03:27;;;;;;;;;10.00;6.67;;;;;17.71;47.74;101362.19;5042281;28;45469;-68
2022/06/01 06:08:39;;;;;;;;;7.33;7.00;;;;;17.90;46.55;101367.22;5041168;28;45561;-69
2022/06/01 06:11:06;;;;;;;;;9.33;8.33;;;;;17.71;47.60;101366.81;5036920;28;45283;-68
2022/06/01 06:13:35;;;;;;;;;4.00;3.33;;;;;17.45;47.01;101372.59;5041622;28;45316;-68
2022/06/01 06:16:02;;;;;;;;;9.00;9.00;;;;;17.28;47.56;101369.03;5041160;28;45386;-69
2022/06/01 06:18:28;;;;;;;;;10.00;8.00;;;;;17.10;48.64;101379.38;5035473;28;45321;-69
2022/06/01 06:20:53;;;;;;;;;9.67;9.67;;;;;17.17;48.09;101366.66;5055913;28;45491;-69
2022/06/01 06:23:18;;;;;;;;;11.00;8.00;;;;;17.37;48.15;101364.38;5041482;28;45473;-69
2022/06/01 06:25:44;;;;;;;;;8.00;7.00;;;;;17.36;47.44;101369.03;5041373;28;45500;-70
2022/06/01 06:28:10;;;;;;;;;7.00;7.00;;;;;17.11;47.38;101357.25;5040244;28;45398;-69
2022/06/01 06:30:38;;;;;;;;;7.33;6.33;;;;;17.23;47.45;101365.97;5029237;28;45514;-70
2022/06/01 06:33:04;;;;;;;;;5.00;3.00;;;;;17.35;46.61;101372.78;5041092;28;45326;-69
2022/06/01 06:35:29;;;;;;;;;3.00;1.67;;;;;17.32;46.28;101364.03;5041017;28;46694;-70
2022/06/01 06:37:55;;;;;;;;;7.67;7.33;;;;;17.40;45.37;101369.50;5035333;28;45448;-69
2022/06/01 06:40:20;;;;;;;;;1.67;1.67;;;;;17.38;45.70;101374.34;5040646;28;45560;-69
2022/06/01 06:42:46;;;;;;;;;7.00;6.00;;;;;17.46;45.43;101374.28;5037706;28;45393;-69
2022/06/01 06:45:11;;;;;;;;;6.33;5.67;;;;;17.47;43.57;101376.00;5041346;28;45341;-69
2022/06/01 06:47:37;;;;;;;;;8.33;5.67;;;;;17.62;43.43;101379.75;5040652;28;45701;-69
2022/06/01 06:50:06;;;;;;;;;5.00;3.67;;;;;17.77;43.06;101375.19;5041147;28;45546;-68
2022/06/01 06:52:32;;;;;;;;;5.00;5.00;;;;;17.93;43.62;101377.00;5041021;28;45500;-69
2022/06/01 06:54:57;;;;;;;;;5.33;4.33;;;;;18.08;43.20;101380.69;5040963;28;46512;-69
2022/06/01 06:57:22;;;;;;;;;5.00;4.33;;;;;18.02;43.31;101381.44;5039618;28;45410;-68
2022/06/01 06:59:48;;;;;;;;;5.67;4.00;;;;;17.82;44.11;101377.44;5055318;28;45338;-68
2022/06/01 07:02:16;;;;;;;;;6.00;4.50;;;;;17.61;44.94;101390.88;5056159;28;45495;-68
2022/06/01 07:04:41;;;;;;;;;9.00;5.00;;;;;17.96;44.11;101382.16;5039675;28;46228;-67
2022/06/01 07:07:07;;;;;;;;;11.67;8.33;;;;;17.98;44.38;101381.94;5041295;28;45318;-68
2022/06/01 07:09:32;;;;;;;;;6.67;5.00;;;;;18.10;44.05;101388.78;5040379;28;45608;-67
2022/06/01 07:11:57;;;;;;;;;6.67;6.67;;;;;17.80;44.46;101383.09;5041717;28;45348;-67
2022/06/01 07:14:23;;;;;;;;;11.00;9.00;;;;;17.89;44.75;101382.03;5039125;28;46620;-68
2022/06/01 07:16:48;;;;;;;;;6.00;3.00;;;;;17.80;44.11;101391.34;5040601;28;45292;-67
2022/06/01 07:19:14;;;;;;;;;10.00;7.00;;;;;17.88;44.54;101393.19;5040257;28;45299;-67
2022/06/01 07:21:41;;;;;;;;;5.00;5.00;;;;;18.18;44.24;101388.72;5041487;28;45190;-67
2022/06/01 07:24:07;;;;;;;;;6.00;6.00;;;;;18.15;44.45;101392.69;5039886;28;45419;-67
2022/06/01 07:26:38;;;;;;;;;5.00;5.00;;;;;18.30;44.02;101387.25;5040457;28;45445;-68
2022/06/01 07:29:05;;;;;;;;;5.00;4.67;;;;;18.46;43.83;101378.88;5034113;28;45450;-67
2022/06/01 07:31:30;;;;;;;;;8.33;5.00;;;;;18.48;43.42;101382.28;5040924;28;45301;-68
2022/06/01 07:33:58;;;;;;;;;9.33;7.00;;;;;18.37;44.01;101381.88;5034767;28;45278;-68
2022/06/01 07:36:24;;;;;;;;;3.33;3.33;;;;;18.40;44.22;101379.63;5041161;28;45481;-68
2022/06/01 07:44:22;;;;;;;;;6.00;5.67;;;;;18.76;43.19;101385.34;5039594;28;46058;-68
2022/06/01 07:46:48;;;;;;;;;8.67;7.00;;;;;18.76;43.37;101387.25;5049475;28;45328;-68
2022/06/01 07:49:14;;;;;;;;;9.00;7.00;;;;;18.88;43.35;101389.34;5032391;28;45450;-68
2022/06/01 07:51:40;;;;;;;;;6.33;6.00;;;;;18.98;43.60;101391.84;5042120;28;45540;-68
2022/06/01 07:54:05;;;;;;;;;4.33;4.33;;;;;18.50;43.03;101399.47;5043689;28;45306;-68
2022/06/01 07:56:32;;;;;;;;;3.67;3.67;;;;;18.39;43.59;101388.91;5058700;28;45400;-68
2022/06/01 07:58:57;;;;;;;;;5.67;5.67;;;;;18.72;43.54;101385.91;5043154;28;45359;-68
2022/06/01 08:01:25;;;;;;;;;10.00;5.33;;;;;18.73;43.24;101393.13;5043749;28;45318;-69
2022/06/01 08:03:58;;;;;;;;;9.00;9.00;;;;;18.89;42.90;101388.31;5058833;28;47181;-68
2022/06/01 08:06:25;;;;;;;;;6.00;3.33;;;;;19.04;42.77;101391.09;5044201;28;45351;-69
2022/06/01 08:08:50;;;;;;;;;7.00;7.00;;;;;18.82;43.01;101390.13;5035495;28;45447;-68
2022/06/01 08:11:18;;;;;;;;;6.00;5.00;;;;;18.73;43.26;101385.72;5043521;28;45604;-69
2022/06/01 08:13:43;;;;;;;;;6.00;6.00;;;;;19.18;42.55;101393.00;5043807;28;46295;-70
2022/06/01 08:16:09;;;;;;;;;3.00;1.00;;;;;19.41;41.23;101382.75;5044372;28;45398;-68
2022/06/01 08:18:36;;;;;;;;;7.33;7.33;;;;;19.42;42.30;101380.84;5038759;28;45467;-69
2022/06/01 08:21:03;;;;;;;;;8.67;6.00;;;;;19.65;41.75;101386.28;5043775;28;45487;-69
2022/06/01 08:23:31;;;;;;;;;6.33;6.00;;;;;19.75;42.13;101384.06;5043336;28;46828;-69
2022/06/01 08:25:56;;;;;;;;;7.33;6.00;;;;;19.53;41.00;101382.28;5060005;28;45377;-69
2022/06/01 08:28:23;;;;;;;;;7.00;7.00;;;;;19.35;41.07;101386.28;5041882;28;45339;-69
2022/06/01 08:30:49;;;;;;;;;8.67;3.33;;;;;19.13;42.18;101395.47;5045119;28;45217;-69
2022/06/01 08:33:16;;;;;;;;;6.00;5.00;;;;;18.93;42.57;101397.91;5043570;28;46463;-69
2022/06/01 08:35:44;;;;;;;;;5.67;4.33;;;;;19.34;42.20;101384.56;5042889;28;45372;-69
2022/06/01 08:38:10;;;;;;;;;3.33;3.33;;;;;19.84;41.23;101374.66;5043902;28;45302;-69
2022/06/01 08:40:53;;;;;;;;;4.67;3.00;;;;;20.24;40.72;101380.63;5043146;28;45321;-68
2022/06/01 08:43:23;;;;;;;;;5.00;5.00;;;;;20.31;39.76;101378.78;5043546;28;45671;-69
2022/06/01 08:45:53;;;;;;;;;4.67;2.00;;;;;20.08;39.97;101382.59;5043977;28;45327;-69
2022/06/01 08:48:29;;;;;;;;;4.67;3.00;;;;;20.17;39.19;101373.09;5040042;28;45454;-68
2022/06/01 08:50:56;;;;;;;;;3.67;2.67;;;;;20.34;39.13;101376.50;5059492;28;45412;-69
2022/06/01 08:53:22;;;;;;;;;9.00;9.00;;;;;20.18;39.69;101385.84;5043334;28;46674;-69
2022/06/01 08:55:52;;;;;;;;;4.33;3.00;;;;;19.83;40.52;101383.97;5043932;28;45385;-69
2022/06/01 08:58:26;;;;;;;;;2.00;2.00;;;;;20.25;39.52;101371.28;5057375;28;45331;-70
2022/06/01 09:01:01;;;;;;;;;4.67;3.00;;;;;20.68;38.89;101378.50;5044689;28;45631;-69
2022/06/01 09:03:48;;;;;;;;;2.67;2.67;;;;;20.82;38.83;101380.34;5043115;28;45425;-70
2022/06/01 09:06:27;;;;;;;;;5.00;5.00;;;;;20.95;38.58;101374.94;5044419;28;45393;-69
2022/06/01 09:09:09;;;;;;;;;5.00;5.00;;;;;21.12;37.82;101383.75;5043458;28;45417;-70
2022/06/01 09:11:37;;;;;;;;;4.00;4.00;;;;;20.81;39.14;101381.41;5044301;28;45326;-69
2022/06/01 09:14:14;;;;;;;;;5.00;4.00;;;;;20.91;38.16;101387.44;5037994;28;47133;-69
2022/06/01 09:16:46;;;;;;;;;1.67;1.67;;;;;20.75;37.84;101393.22;5042363;28;46004;-69
2022/06/01 09:22:37;;;;;;;;;5.00;4.00;;;;;20.62;37.77;101389.50;5043081;28;45312;-69
2022/06/01 09:25:00;;;;;;;;;3.33;3.33;;;;;20.81;38.18;101389.69;5043477;28;45555;-69
2022/06/01 09:27:38;;;;;;;;;4.33;2.67;;;;;20.89;38.85;101397.81;5042975;28;45388;-69
2022/06/01 09:30:37;;;;;;;;;1.67;1.33;;;;;21.07;37.80;101394.56;5043793;28;45427;-70
2022/06/01 09:33:15;;;;;;;;;3.00;2.67;;;;;21.50;36.93;101384.22;5027903;28;45593;-69
2022/06/01 09:35:56;;;;;;;;;7.00;6.67;;;;;22.10;36.68;101385.38;5043605;28;46299;-69
2022/06/01 09:38:46;;;;;;;;;3.00;3.00;;;;;22.09;36.35;101383.66;5042569;28;45526;-69
2022/06/01 09:41:40;;;;;;;;;3.00;3.00;;;;;22.30;36.75;101385.41;5043406;28;45382;-69
2022/06/01 09:44:11;;;;;;;;;2.00;2.00;;;;;22.94;34.98;101382.94;5043529;28;45295;-69
2022/06/01 09:46:58;;;;;;;;;6.00;3.67;;;;;22.82;35.41;101370.78;5042257;28;45559;-69
2022/06/01 09:49:30;;;;;;;;;4.00;4.00;;;;;23.14;34.43;101389.34;5041904;28;46155;-69
2022/06/01 09:52:06;;;;;;;;;4.00;4.00;;;;;23.60;33.85;101380.91;5041681;28;45410;-69
2022/06/01 09:54:37;;;;;;;;;4.00;4.00;;;;;23.87;33.51;101373.34;5042470;28;45203;-70
2022/06/01 09:57:18;;;;;;;;;1.00;0.00;;;;;23.81;32.57;101384.50;5042670;28;45376;-70
2022/06/01 10:08:28;;;;;;;;;5.67;3.67;;;;;24.49;31.56;101368.94;5032595;28;45347;-70
2022/06/01 10:11:06;;;;;;;;;5.33;4.00;;;;;24.42;31.55;101368.13;5043093;28;45403;-67
2022/06/01 10:13:36;;;;;;;;;3.00;3.00;;;;;24.23;31.49;101374.69;5041273;28;45496;-69
2022/06/01 10:16:15;;;;;;;;;6.00;4.00;;;;;23.77;31.74;101370.19;5043450;28;45319;-70
2022/06/01 10:18:44;;;;;;;;;1.00;1.00;;;;;24.00;31.38;101364.09;5042394;28;45551;-66
2022/06/01 10:21:17;;;;;;;;;2.33;2.33;;;;;23.44;32.51;101372.22;5043036;28;45317;-68
2022/06/01 10:23:48;;;;;;;;;4.00;4.00;;;;;22.88;33.56;101372.72;5044090;28;45437;-69
2022/06/01 10:26:30;;;;;;;;;3.67;2.00;;;;;22.55;33.52;101371.84;5047181;28;45308;-68
2022/06/01 10:29:07;;;;;;;;;2.00;2.00;;;;;22.55;33.70;101366.28;5038442;28;45388;-69
2022/06/01 10:31:46;;;;;;;;;5.00;5.00;;;;;23.35;34.18;101345.78;5042402;28;45440;-70
2022/06/01 10:34:20;;;;;;;;;4.00;4.00;;;;;23.85;32.10;101358.84;5042340;28;45548;-70
2022/06/01 10:37:03;;;;;;;;;6.33;4.00;;;;;24.37;31.06;101363.28;5068954;28;45361;-69
2022/06/01 10:39:51;;;;;;;;;3.67;2.00;;;;;25.27;30.54;101351.81;5040965;28;46180;-70
2022/06/01 10:43:16;;;;;;;;;4.00;4.00;;;;;25.47;28.90;101361.66;5032782;28;45342;-68
2022/06/01 10:45:14;;;;;;;;;1.33;1.33;;;;;25.62;28.59;101360.44;5042820;28;45462;-69
2022/06/01 10:48:00;;;;;;;;;0.00;0.00;;;;;24.71;29.37;101349.97;5042558;28;45445;-69
2022/06/01 10:50:37;;;;;;;;;3.00;3.00;;;;;24.62;31.12;101359.69;5040390;28;45335;-69
2022/06/01 10:53:16;;;;;;;;;0.00;0.00;;;;;24.44;31.06;101364.06;5039426;28;45249;-70
2022/06/01 10:55:44;;;;;;;;;6.67;6.67;;;;;24.63;31.38;101350.25;5042747;28;45368;-70
2022/06/01 10:58:21;;;;;;;;;3.33;2.00;;;;;24.53;31.02;101359.09;5042570;28;45578;-68
2022/06/01 11:01:07;;;;;;;;;1.33;1.33;;;;;24.96;30.43;101353.63;5037424;28;45521;-70
2022/06/01 11:03:50;;;;;;;;;4.00;2.67;;;;;24.99;29.23;101349.53;5041316;28;45457;-70
2022/06/01 11:06:54;;;;;;;;;1.00;1.00;;;;;25.08;29.05;101354.56;5041922;28;45251;-69
2022/06/01 11:09:44;;;;;;;;;4.00;2.33;;;;;25.51;28.92;101348.94;5041971;28;45544;-70
2022/06/01 11:12:31;;;;;;;;;3.00;3.00;;;;;25.30;28.49;101334.66;5041938;28;46646;-68
2022/06/01 11:15:08;;;;;;;;;3.33;3.33;;;;;25.45;28.97;101337.91;5042274;28;45321;-70
2022/06/01 11:17:53;;;;;;;;;1.67;1.67;;;;;24.90;29.73;101345.31;5057215;28;45552;-70
2022/06/01 11:21:00;;;;;;;;;1.00;1.00;;;;;25.45;29.04;101330.41;5039551;28;45327;-70
2022/06/01 11:23:40;;;;;;;;;4.67;2.67;;;;;25.86;28.69;101331.66;5041641;28;46072;-69
2022/06/01 11:26:33;;;;;;;;;4.33;3.67;;;;;25.92;28.55;101334.34;5054720;28;45654;-70
2022/06/01 11:29:06;;;;;;;;;5.67;3.00;;;;;26.56;27.04;101332.75;5042414;28;45686;-68
2022/06/01 11:31:33;;;;;;;;;2.67;2.00;;;;;26.64;28.06;101326.81;5043936;28;45353;-70
2022/06/01 11:34:02;;;;;;;;;2.67;2.33;;;;;26.70;26.71;101327.78;5044682;28;45596;-70
2022/06/01 11:36:45;;;;;;;;;3.00;1.67;;;;;27.20;27.26;101325.41;5045707;28;45286;-70
2022/06/01 11:39:20;;;;;;;;;5.67;3.33;;;;;27.16;25.81;101321.41;5044884;28;45575;-70
2022/06/01 11:41:58;;;;;;;;;3.00;3.00;;;;;25.70;26.82;101326.72;5042964;28;45473;-70
2022/06/01 11:44:34;;;;;;;;;1.00;1.00;;;;;25.32;28.07;101327.78;5044767;28;45467;-70
2022/06/01 11:47:20;;;;;;;;;1.67;1.67;;;;;25.84;27.48;101308.75;5045511;28;45317;-70
2022/06/01 11:50:06;;;;;;;;;3.67;3.00;;;;;26.73;26.38;101316.19;5042415;28;45301;-70
2022/06/01 11:52:45;;;;;;;;;4.00;3.00;;;;;26.10;27.46;101319.50;5045138;28;45528;-70
2022/06/01 11:55:28;;;;;;;;;1.00;1.00;;;;;26.05;27.40;101319.38;5041320;28;45503;-69
2022/06/01 11:58:02;;;;;;;;;5.00;2.67;;;;;26.37;27.16;101310.78;5044135;28;45433;-69
2022/06/01 12:00:41;;;;;;;;;4.00;3.33;;;;;26.62;26.93;101305.84;5045169;28;45390;-70
2022/06/01 12:03:19;;;;;;;;;4.00;2.00;;;;;26.10;26.44;101305.56;5047696;28;45532;-71
2022/06/01 12:06:03;;;;;;;;;2.67;1.00;;;;;26.19;25.72;101320.88;5041707;28;46243;-70